sensor_id;sensor_type;location;lat;lon;timestamp;P1;durP1;ratioP1;P2;durP2;ratioP2
51838;SDS011;37886;53.174;6.368;2023-09-18T00:00:50;998.47;;;891.85;;
51838;SDS011;37886;53.174;6.368;2023-09-18T00:03:20;1044.20;;;929.38;;
51838;SDS011;37886;53.174;6.368;2023-09-18T00:05:49;1038.95;;;925.58;;
51838;SDS011;37886;53.174;6.368;2023-09-18T00:08:16;1026.97;;;913.97;;
51838;SDS011;37886;53.174;6.368;2023-09-18T00:10:46;1049.82;;;936.95;;
51838;SDS011;37886;53.174;6.368;2023-09-18T00:13:14;1051.60;;;939.83;;
51838;SDS011;37886;53.174;6.368;2023-09-18T00:15:40;790.80;;;715.67;;
51838;SDS011;37886;53.174;6.368;2023-09-18T00:18:06;918.22;;;822.38;;
51838;SDS011;37886;53.174;6.368;2023-09-18T00:20:33;1023.47;;;912.55;;
51838;SDS011;37886;53.174;6.368;2023-09-18T00:22:58;1009.30;;;899.85;;
51838;SDS011;37886;53.174;6.368;2023-09-18T00:25:24;1016.15;;;906.78;;
51838;SDS011;37886;53.174;6.368;2023-09-18T00:27:50;1006.13;;;896.45;;
51838;SDS011;37886;53.174;6.368;2023-09-18T00:30:17;1009.45;;;898.78;;
51838;SDS011;37886;53.174;6.368;2023-09-18T00:32:42;981.08;;;875.22;;
51838;SDS011;37886;53.174;6.368;2023-09-18T00:35:08;1026.47;;;914.47;;
51838;SDS011;37886;53.174;6.368;2023-09-18T00:37:34;1031.70;;;915.75;;
51838;SDS011;37886;53.174;6.368;2023-09-18T00:40:02;1052.25;;;930.83;;
51838;SDS011;37886;53.174;6.368;2023-09-18T00:42:30;1038.03;;;925.50;;
51838;SDS011;37886;53.174;6.368;2023-09-18T00:44:55;1037.72;;;921.53;;
51838;SDS011;37886;53.174;6.368;2023-09-18T00:47:21;1029.53;;;916.03;;
51838;SDS011;37886;53.174;6.368;2023-09-18T00:49:48;1014.58;;;901.53;;
51838;SDS011;37886;53.174;6.368;2023-09-18T00:52:15;984.20;;;877.05;;
51838;SDS011;37886;53.174;6.368;2023-09-18T00:54:42;988.35;;;882.28;;
51838;SDS011;37886;53.174;6.368;2023-09-18T00:57:09;1007.83;;;893.75;;
51838;SDS011;37886;53.174;6.368;2023-09-18T00:59:35;1020.90;;;905.30;;
51838;SDS011;37886;53.174;6.368;2023-09-18T01:02:02;970.17;;;862.90;;
51838;SDS011;37886;53.174;6.368;2023-09-18T01:04:28;912.25;;;812.67;;
51838;SDS011;37886;53.174;6.368;2023-09-18T01:06:57;974.30;;;868.53;;
51838;SDS011;37886;53.174;6.368;2023-09-18T01:09:29;971.08;;;862.47;;
51838;SDS011;37886;53.174;6.368;2023-09-18T01:17:12;972.83;;;868.30;;
51838;SDS011;37886;53.174;6.368;2023-09-18T01:19:41;987.85;;;881.35;;
51838;SDS011;37886;53.174;6.368;2023-09-18T01:24:37;974.38;;;870.38;;
51838;SDS011;37886;53.174;6.368;2023-09-18T01:27:05;1015.25;;;903.92;;
51838;SDS011;37886;53.174;6.368;2023-09-18T01:29:35;1014.65;;;904.60;;
51838;SDS011;37886;53.174;6.368;2023-09-18T01:32:01;974.63;;;870.20;;
51838;SDS011;37886;53.174;6.368;2023-09-18T01:34:32;1031.50;;;917.95;;
51838;SDS011;37886;53.174;6.368;2023-09-18T01:37:04;1052.65;;;938.25;;
51838;SDS011;37886;53.174;6.368;2023-09-18T01:39:33;1024.60;;;912.53;;
51838;SDS011;37886;53.174;6.368;2023-09-18T01:42:01;994.58;;;886.47;;
51838;SDS011;37886;53.174;6.368;2023-09-18T01:44:29;967.38;;;864.42;;
51838;SDS011;37886;53.174;6.368;2023-09-18T01:46:59;958.63;;;854.95;;
51838;SDS011;37886;53.174;6.368;2023-09-18T01:49:28;1020.63;;;898.55;;
51838;SDS011;37886;53.174;6.368;2023-09-18T01:51:55;1060.05;;;909.83;;
51838;SDS011;37886;53.174;6.368;2023-09-18T01:54:21;1048.30;;;897.20;;
51838;SDS011;37886;53.174;6.368;2023-09-18T01:56:47;1114.72;;;939.47;;
51838;SDS011;37886;53.174;6.368;2023-09-18T01:59:12;1047.50;;;914.08;;
51838;SDS011;37886;53.174;6.368;2023-09-18T02:01:38;1074.13;;;919.65;;
51838;SDS011;37886;53.174;6.368;2023-09-18T02:04:04;1041.65;;;883.97;;
51838;SDS011;37886;53.174;6.368;2023-09-18T02:06:30;906.78;;;805.67;;
51838;SDS011;37886;53.174;6.368;2023-09-18T02:08:56;958.47;;;829.10;;
51838;SDS011;37886;53.174;6.368;2023-09-18T02:11:22;1167.70;;;954.67;;
51838;SDS011;37886;53.174;6.368;2023-09-18T02:13:47;1075.47;;;888.55;;
51838;SDS011;37886;53.174;6.368;2023-09-18T02:16:13;1044.03;;;807.30;;
51838;SDS011;37886;53.174;6.368;2023-09-18T02:18:39;1043.07;;;829.95;;
51838;SDS011;37886;53.174;6.368;2023-09-18T02:21:04;1155.78;;;923.13;;
51838;SDS011;37886;53.174;6.368;2023-09-18T02:23:30;1153.25;;;925.30;;
51838;SDS011;37886;53.174;6.368;2023-09-18T02:25:56;981.88;;;839.00;;
51838;SDS011;37886;53.174;6.368;2023-09-18T02:28:23;1080.50;;;862.50;;
51838;SDS011;37886;53.174;6.368;2023-09-18T02:30:48;1107.68;;;906.17;;
51838;SDS011;37886;53.174;6.368;2023-09-18T02:33:15;1171.43;;;944.90;;
51838;SDS011;37886;53.174;6.368;2023-09-18T02:35:41;1239.85;;;965.50;;
51838;SDS011;37886;53.174;6.368;2023-09-18T02:38:08;1178.07;;;926.22;;
51838;SDS011;37886;53.174;6.368;2023-09-18T02:40:34;1161.07;;;930.50;;
51838;SDS011;37886;53.174;6.368;2023-09-18T02:43:00;1154.30;;;938.53;;
51838;SDS011;37886;53.174;6.368;2023-09-18T02:45:27;1095.40;;;903.17;;
51838;SDS011;37886;53.174;6.368;2023-09-18T02:47:53;1137.70;;;918.17;;
51838;SDS011;37886;53.174;6.368;2023-09-18T02:50:18;1098.90;;;914.45;;
51838;SDS011;37886;53.174;6.368;2023-09-18T02:52:44;1058.25;;;880.72;;
51838;SDS011;37886;53.174;6.368;2023-09-18T02:55:10;1032.18;;;862.42;;
51838;SDS011;37886;53.174;6.368;2023-09-18T02:57:35;1123.45;;;919.97;;
51838;SDS011;37886;53.174;6.368;2023-09-18T03:00:01;1050.93;;;876.13;;
51838;SDS011;37886;53.174;6.368;2023-09-18T03:02:28;1022.28;;;858.03;;
51838;SDS011;37886;53.174;6.368;2023-09-18T03:04:55;994.85;;;852.75;;
51838;SDS011;37886;53.174;6.368;2023-09-18T03:07:21;1012.40;;;868.63;;
51838;SDS011;37886;53.174;6.368;2023-09-18T03:09:47;1059.32;;;899.22;;
51838;SDS011;37886;53.174;6.368;2023-09-18T03:12:13;1000.92;;;877.45;;
51838;SDS011;37886;53.174;6.368;2023-09-18T03:14:38;1034.50;;;893.85;;
51838;SDS011;37886;53.174;6.368;2023-09-18T03:17:04;942.20;;;834.40;;
51838;SDS011;37886;53.174;6.368;2023-09-18T03:19:30;1014.50;;;884.65;;
51838;SDS011;37886;53.174;6.368;2023-09-18T03:21:56;968.80;;;855.80;;
51838;SDS011;37886;53.174;6.368;2023-09-18T03:24:21;906.45;;;807.00;;
51838;SDS011;37886;53.174;6.368;2023-09-18T03:26:47;968.83;;;849.80;;
51838;SDS011;37886;53.174;6.368;2023-09-18T03:29:14;996.38;;;872.53;;
51838;SDS011;37886;53.174;6.368;2023-09-18T03:31:40;925.80;;;818.72;;
51838;SDS011;37886;53.174;6.368;2023-09-18T03:34:05;1008.08;;;878.55;;
51838;SDS011;37886;53.174;6.368;2023-09-18T03:36:31;1031.60;;;886.92;;
51838;SDS011;37886;53.174;6.368;2023-09-18T03:38:57;987.45;;;861.67;;
51838;SDS011;37886;53.174;6.368;2023-09-18T03:41:23;1020.03;;;893.15;;
51838;SDS011;37886;53.174;6.368;2023-09-18T03:43:50;913.92;;;811.63;;
51838;SDS011;37886;53.174;6.368;2023-09-18T03:46:15;1016.67;;;866.13;;
51838;SDS011;37886;53.174;6.368;2023-09-18T03:48:41;1022.00;;;894.17;;
51838;SDS011;37886;53.174;6.368;2023-09-18T03:51:07;886.40;;;779.42;;
51838;SDS011;37886;53.174;6.368;2023-09-18T03:53:37;887.78;;;790.10;;
51838;SDS011;37886;53.174;6.368;2023-09-18T03:56:03;987.05;;;859.58;;
51838;SDS011;37886;53.174;6.368;2023-09-18T03:58:28;990.88;;;868.85;;
51838;SDS011;37886;53.174;6.368;2023-09-18T04:00:54;1058.45;;;897.95;;
51838;SDS011;37886;53.174;6.368;2023-09-18T04:03:21;849.15;;;756.72;;
51838;SDS011;37886;53.174;6.368;2023-09-18T04:05:46;979.75;;;866.97;;
51838;SDS011;37886;53.174;6.368;2023-09-18T04:08:12;1006.22;;;876.40;;
51838;SDS011;37886;53.174;6.368;2023-09-18T04:10:38;797.38;;;711.60;;
51838;SDS011;37886;53.174;6.368;2023-09-18T04:13:04;957.20;;;848.15;;
51838;SDS011;37886;53.174;6.368;2023-09-18T04:15:30;962.17;;;854.28;;
51838;SDS011;37886;53.174;6.368;2023-09-18T04:17:55;960.03;;;854.25;;
51838;SDS011;37886;53.174;6.368;2023-09-18T04:20:21;978.70;;;871.90;;
51838;SDS011;37886;53.174;6.368;2023-09-18T04:23:16;948.13;;;843.47;;
51838;SDS011;37886;53.174;6.368;2023-09-18T04:25:44;979.78;;;871.13;;
51838;SDS011;37886;53.174;6.368;2023-09-18T04:28:17;945.88;;;842.15;;
51838;SDS011;37886;53.174;6.368;2023-09-18T04:30:44;965.85;;;849.60;;
51838;SDS011;37886;53.174;6.368;2023-09-18T04:33:10;1001.78;;;863.38;;
51838;SDS011;37886;53.174;6.368;2023-09-18T04:35:37;1009.80;;;869.67;;
51838;SDS011;37886;53.174;6.368;2023-09-18T04:38:05;892.45;;;796.08;;
51838;SDS011;37886;53.174;6.368;2023-09-18T04:40:33;932.78;;;828.33;;
51838;SDS011;37886;53.174;6.368;2023-09-18T04:43:00;995.30;;;873.80;;
51838;SDS011;37886;53.174;6.368;2023-09-18T04:45:26;925.20;;;823.08;;
51838;SDS011;37886;53.174;6.368;2023-09-18T04:47:55;959.15;;;853.25;;
51838;SDS011;37886;53.174;6.368;2023-09-18T04:50:21;960.50;;;851.95;;
51838;SDS011;37886;53.174;6.368;2023-09-18T04:52:48;931.83;;;829.17;;
51838;SDS011;37886;53.174;6.368;2023-09-18T04:55:15;965.67;;;857.13;;
51838;SDS011;37886;53.174;6.368;2023-09-18T04:57:41;1004.38;;;873.35;;
51838;SDS011;37886;53.174;6.368;2023-09-18T05:00:07;978.85;;;854.85;;
51838;SDS011;37886;53.174;6.368;2023-09-18T05:02:35;946.33;;;843.28;;
51838;SDS011;37886;53.174;6.368;2023-09-18T05:05:01;971.15;;;856.28;;
51838;SDS011;37886;53.174;6.368;2023-09-18T05:07:29;844.20;;;752.90;;
51838;SDS011;37886;53.174;6.368;2023-09-18T05:09:55;918.17;;;815.55;;
51838;SDS011;37886;53.174;6.368;2023-09-18T05:12:21;882.35;;;784.72;;
51838;SDS011;37886;53.174;6.368;2023-09-18T05:14:48;1003.05;;;889.75;;
51838;SDS011;37886;53.174;6.368;2023-09-18T05:17:14;931.75;;;828.90;;
51838;SDS011;37886;53.174;6.368;2023-09-18T05:19:41;993.28;;;867.58;;
51838;SDS011;37886;53.174;6.368;2023-09-18T05:22:10;882.35;;;787.88;;
51838;SDS011;37886;53.174;6.368;2023-09-18T05:24:40;881.67;;;786.03;;
51838;SDS011;37886;53.174;6.368;2023-09-18T05:27:06;941.97;;;838.78;;
51838;SDS011;37886;53.174;6.368;2023-09-18T05:29:32;908.85;;;809.55;;
51838;SDS011;37886;53.174;6.368;2023-09-18T05:31:58;940.83;;;837.00;;
51838;SDS011;37886;53.174;6.368;2023-09-18T05:34:24;854.13;;;762.47;;
51838;SDS011;37886;53.174;6.368;2023-09-18T05:36:50;993.28;;;883.92;;
51838;SDS011;37886;53.174;6.368;2023-09-18T05:39:16;918.50;;;816.58;;
51838;SDS011;37886;53.174;6.368;2023-09-18T05:41:42;874.70;;;780.22;;
51838;SDS011;37886;53.174;6.368;2023-09-18T05:44:08;991.30;;;882.55;;
51838;SDS011;37886;53.174;6.368;2023-09-18T05:46:34;958.17;;;854.30;;
51838;SDS011;37886;53.174;6.368;2023-09-18T05:49:01;977.38;;;837.80;;
51838;SDS011;37886;53.174;6.368;2023-09-18T05:51:27;937.38;;;837.33;;
51838;SDS011;37886;53.174;6.368;2023-09-18T05:53:53;865.83;;;774.90;;
51838;SDS011;37886;53.174;6.368;2023-09-18T05:56:19;939.03;;;837.88;;
51838;SDS011;37886;53.174;6.368;2023-09-18T05:58:44;886.47;;;777.05;;
51838;SDS011;37886;53.174;6.368;2023-09-18T06:01:10;919.47;;;794.45;;
51838;SDS011;37886;53.174;6.368;2023-09-18T06:03:36;952.80;;;836.63;;
51838;SDS011;37886;53.174;6.368;2023-09-18T06:06:02;1000.67;;;870.15;;
51838;SDS011;37886;53.174;6.368;2023-09-18T06:08:28;828.75;;;739.78;;
51838;SDS011;37886;53.174;6.368;2023-09-18T06:10:55;967.25;;;861.30;;
51838;SDS011;37886;53.174;6.368;2023-09-18T06:13:23;866.83;;;771.50;;
51838;SDS011;37886;53.174;6.368;2023-09-18T06:15:50;947.45;;;846.22;;
51838;SDS011;37886;53.174;6.368;2023-09-18T06:18:18;945.75;;;835.92;;
51838;SDS011;37886;53.174;6.368;2023-09-18T06:20:46;960.45;;;856.63;;
51838;SDS011;37886;53.174;6.368;2023-09-18T06:23:12;967.95;;;863.33;;
51838;SDS011;37886;53.174;6.368;2023-09-18T06:25:38;826.47;;;739.30;;
51838;SDS011;37886;53.174;6.368;2023-09-18T06:28:04;1009.47;;;891.08;;
51838;SDS011;37886;53.174;6.368;2023-09-18T06:30:30;969.95;;;862.08;;
51838;SDS011;37886;53.174;6.368;2023-09-18T06:32:58;1055.07;;;904.83;;
51838;SDS011;37886;53.174;6.368;2023-09-18T06:35:26;896.25;;;800.38;;
51838;SDS011;37886;53.174;6.368;2023-09-18T06:37:52;912.55;;;807.20;;
51838;SDS011;37886;53.174;6.368;2023-09-18T06:42:49;799.13;;;716.60;;
51838;SDS011;37886;53.174;6.368;2023-09-18T06:45:15;996.78;;;878.88;;
51838;SDS011;37886;53.174;6.368;2023-09-18T06:47:40;836.70;;;750.22;;
51838;SDS011;37886;53.174;6.368;2023-09-18T06:50:07;913.65;;;812.83;;
51838;SDS011;37886;53.174;6.368;2023-09-18T06:52:32;1005.38;;;877.33;;
51838;SDS011;37886;53.174;6.368;2023-09-18T06:54:58;894.35;;;799.20;;
51838;SDS011;37886;53.174;6.368;2023-09-18T06:57:24;921.20;;;822.90;;
51838;SDS011;37886;53.174;6.368;2023-09-18T06:59:50;814.90;;;731.53;;
51838;SDS011;37886;53.174;6.368;2023-09-18T07:02:16;945.42;;;842.20;;
51838;SDS011;37886;53.174;6.368;2023-09-18T07:04:41;1043.68;;;924.90;;
51838;SDS011;37886;53.174;6.368;2023-09-18T07:07:14;877.00;;;782.50;;
51838;SDS011;37886;53.174;6.368;2023-09-18T07:09:40;889.65;;;794.85;;
51838;SDS011;37886;53.174;6.368;2023-09-18T07:12:09;953.40;;;842.08;;
51838;SDS011;37886;53.174;6.368;2023-09-18T07:14:35;933.15;;;823.67;;
51838;SDS011;37886;53.174;6.368;2023-09-18T07:17:03;873.63;;;778.03;;
51838;SDS011;37886;53.174;6.368;2023-09-18T07:19:29;786.67;;;705.65;;
51838;SDS011;37886;53.174;6.368;2023-09-18T07:21:55;725.55;;;653.72;;
51838;SDS011;37886;53.174;6.368;2023-09-18T07:24:20;731.70;;;658.40;;
51838;SDS011;37886;53.174;6.368;2023-09-18T07:26:49;736.13;;;663.20;;
51838;SDS011;37886;53.174;6.368;2023-09-18T07:29:15;923.13;;;824.35;;
51838;SDS011;37886;53.174;6.368;2023-09-18T07:31:41;853.70;;;762.22;;
51838;SDS011;37886;53.174;6.368;2023-09-18T07:34:08;896.35;;;800.60;;
51838;SDS011;37886;53.174;6.368;2023-09-18T07:36:34;927.63;;;818.20;;
51838;SDS011;37886;53.174;6.368;2023-09-18T07:39:00;900.63;;;799.30;;
51838;SDS011;37886;53.174;6.368;2023-09-18T07:41:26;785.22;;;706.08;;
51838;SDS011;37886;53.174;6.368;2023-09-18T07:43:51;882.85;;;787.00;;
51838;SDS011;37886;53.174;6.368;2023-09-18T07:46:18;914.65;;;800.40;;
51838;SDS011;37886;53.174;6.368;2023-09-18T07:48:43;964.75;;;852.65;;
51838;SDS011;37886;53.174;6.368;2023-09-18T07:51:12;747.40;;;667.97;;
51838;SDS011;37886;53.174;6.368;2023-09-18T07:53:39;808.00;;;720.33;;
51838;SDS011;37886;53.174;6.368;2023-09-18T07:56:04;737.00;;;659.63;;
51838;SDS011;37886;53.174;6.368;2023-09-18T07:58:30;918.38;;;805.90;;
51838;SDS011;37886;53.174;6.368;2023-09-18T08:00:58;872.03;;;775.55;;
51838;SDS011;37886;53.174;6.368;2023-09-18T08:03:24;778.10;;;696.10;;
51838;SDS011;37886;53.174;6.368;2023-09-18T08:05:54;905.70;;;794.13;;
51838;SDS011;37886;53.174;6.368;2023-09-18T08:08:20;1050.07;;;885.53;;
51838;SDS011;37886;53.174;6.368;2023-09-18T08:10:47;1037.93;;;853.85;;
51838;SDS011;37886;53.174;6.368;2023-09-18T08:13:13;967.50;;;819.63;;
51838;SDS011;37886;53.174;6.368;2023-09-18T08:15:39;960.35;;;823.65;;
51838;SDS011;37886;53.174;6.368;2023-09-18T08:18:05;891.22;;;772.47;;
51838;SDS011;37886;53.174;6.368;2023-09-18T08:20:30;930.78;;;804.53;;
51838;SDS011;37886;53.174;6.368;2023-09-18T08:22:58;921.20;;;818.28;;
51838;SDS011;37886;53.174;6.368;2023-09-18T08:25:26;978.20;;;825.38;;
51838;SDS011;37886;53.174;6.368;2023-09-18T08:27:52;849.17;;;755.33;;
51838;SDS011;37886;53.174;6.368;2023-09-18T08:30:18;957.35;;;817.70;;
51838;SDS011;37886;53.174;6.368;2023-09-18T08:32:46;1061.80;;;894.58;;
51838;SDS011;37886;53.174;6.368;2023-09-18T08:35:12;1014.95;;;842.08;;
51838;SDS011;37886;53.174;6.368;2023-09-18T08:37:39;994.83;;;825.92;;
51838;SDS011;37886;53.174;6.368;2023-09-18T08:40:14;988.28;;;832.28;;
51838;SDS011;37886;53.174;6.368;2023-09-18T08:42:41;807.95;;;703.83;;
51838;SDS011;37886;53.174;6.368;2023-09-18T08:47:39;843.63;;;743.20;;
51838;SDS011;37886;53.174;6.368;2023-09-18T08:50:06;874.25;;;755.95;;
51838;SDS011;37886;53.174;6.368;2023-09-18T08:52:35;961.20;;;811.17;;
51838;SDS011;37886;53.174;6.368;2023-09-18T08:55:02;1008.45;;;826.78;;
51838;SDS011;37886;53.174;6.368;2023-09-18T08:57:29;821.67;;;719.33;;
51838;SDS011;37886;53.174;6.368;2023-09-18T08:59:56;781.45;;;694.80;;
51838;SDS011;37886;53.174;6.368;2023-09-18T09:02:30;897.67;;;777.70;;
51838;SDS011;37886;53.174;6.368;2023-09-18T09:04:56;1012.38;;;832.42;;
51838;SDS011;37886;53.174;6.368;2023-09-18T09:07:22;908.30;;;767.67;;
51838;SDS011;37886;53.174;6.368;2023-09-18T09:09:47;1052.53;;;869.60;;
51838;SDS011;37886;53.174;6.368;2023-09-18T09:12:13;842.95;;;728.95;;
51838;SDS011;37886;53.174;6.368;2023-09-18T09:14:39;1005.15;;;835.47;;
51838;SDS011;37886;53.174;6.368;2023-09-18T09:17:06;692.58;;;617.22;;
51838;SDS011;37886;53.174;6.368;2023-09-18T09:19:35;1020.55;;;821.42;;
51838;SDS011;37886;53.174;6.368;2023-09-18T09:22:04;1008.38;;;834.92;;
51838;SDS011;37886;53.174;6.368;2023-09-18T09:27:03;861.33;;;717.53;;
51838;SDS011;37886;53.174;6.368;2023-09-18T09:29:29;793.05;;;694.28;;
51838;SDS011;37886;53.174;6.368;2023-09-18T09:31:55;1030.13;;;843.20;;
51838;SDS011;37886;53.174;6.368;2023-09-18T09:34:25;928.00;;;770.58;;
51838;SDS011;37886;53.174;6.368;2023-09-18T09:36:52;948.67;;;782.40;;
51838;SDS011;37886;53.174;6.368;2023-09-18T09:39:19;1118.13;;;885.17;;
51838;SDS011;37886;53.174;6.368;2023-09-18T09:41:48;991.92;;;837.03;;
51838;SDS011;37886;53.174;6.368;2023-09-18T09:44:15;973.13;;;827.72;;
51838;SDS011;37886;53.174;6.368;2023-09-18T09:46:48;924.28;;;794.22;;
51838;SDS011;37886;53.174;6.368;2023-09-18T09:49:14;887.17;;;778.30;;
51838;SDS011;37886;53.174;6.368;2023-09-18T09:51:41;1266.13;;;891.53;;
51838;SDS011;37886;53.174;6.368;2023-09-18T09:54:07;1017.88;;;863.83;;
51838;SDS011;37886;53.174;6.368;2023-09-18T09:56:49;1033.07;;;864.92;;
51838;SDS011;37886;53.174;6.368;2023-09-18T09:59:19;877.67;;;780.80;;
51838;SDS011;37886;53.174;6.368;2023-09-18T10:01:46;1083.88;;;885.45;;
51838;SDS011;37886;53.174;6.368;2023-09-18T10:04:14;1149.47;;;896.72;;
51838;SDS011;37886;53.174;6.368;2023-09-18T10:06:52;960.22;;;854.42;;
51838;SDS011;37886;53.174;6.368;2023-09-18T10:09:23;979.85;;;852.22;;
51838;SDS011;37886;53.174;6.368;2023-09-18T10:11:54;964.17;;;807.15;;
51838;SDS011;37886;53.174;6.368;2023-09-18T10:14:32;895.78;;;777.35;;
51838;SDS011;37886;53.174;6.368;2023-09-18T10:17:17;1072.30;;;884.43;;
51838;SDS011;37886;53.174;6.368;2023-09-18T10:25:15;1144.25;;;868.20;;
51838;SDS011;37886;53.174;6.368;2023-09-18T10:27:49;672.20;;;605.20;;
51838;SDS011;37886;53.174;6.368;2023-09-18T10:30:18;727.60;;;653.45;;
51838;SDS011;37886;53.174;6.368;2023-09-18T10:32:48;956.08;;;815.80;;
51838;SDS011;37886;53.174;6.368;2023-09-18T10:35:14;856.95;;;760.13;;
51838;SDS011;37886;53.174;6.368;2023-09-18T10:37:44;967.38;;;858.95;;
51838;SDS011;37886;53.174;6.368;2023-09-18T10:40:11;684.53;;;614.28;;
51838;SDS011;37886;53.174;6.368;2023-09-18T10:42:38;699.08;;;628.42;;
51838;SDS011;37886;53.174;6.368;2023-09-18T10:45:05;944.85;;;842.80;;
51838;SDS011;37886;53.174;6.368;2023-09-18T10:47:37;630.83;;;569.13;;
51838;SDS011;37886;53.174;6.368;2023-09-18T10:50:05;665.58;;;600.65;;
51838;SDS011;37886;53.174;6.368;2023-09-18T10:52:32;656.70;;;597.03;;
51838;SDS011;37886;53.174;6.368;2023-09-18T10:55:00;874.13;;;786.83;;
51838;SDS011;37886;53.174;6.368;2023-09-18T10:57:32;396.77;;;366.67;;
51838;SDS011;37886;53.174;6.368;2023-09-18T11:00:01;533.47;;;486.40;;
51838;SDS011;37886;53.174;6.368;2023-09-18T11:02:38;353.85;;;325.27;;
51838;SDS011;37886;53.174;6.368;2023-09-18T11:05:07;435.13;;;397.70;;
51838;SDS011;37886;53.174;6.368;2023-09-18T11:07:32;668.33;;;602.50;;
51838;SDS011;37886;53.174;6.368;2023-09-18T11:09:58;618.45;;;560.33;;
51838;SDS011;37886;53.174;6.368;2023-09-18T11:12:41;544.83;;;495.98;;
51838;SDS011;37886;53.174;6.368;2023-09-18T11:15:08;859.58;;;776.03;;
51838;SDS011;37886;53.174;6.368;2023-09-18T11:17:58;627.38;;;562.38;;
51838;SDS011;37886;53.174;6.368;2023-09-18T11:20:25;433.65;;;397.15;;
51838;SDS011;37886;53.174;6.368;2023-09-18T11:22:59;383.08;;;348.25;;
51838;SDS011;37886;53.174;6.368;2023-09-18T11:25:38;369.77;;;338.35;;
51838;SDS011;37886;53.174;6.368;2023-09-18T11:28:07;261.98;;;241.38;;
51838;SDS011;37886;53.174;6.368;2023-09-18T11:30:37;377.63;;;346.30;;
51838;SDS011;37886;53.174;6.368;2023-09-18T11:33:12;503.42;;;458.80;;
51838;SDS011;37886;53.174;6.368;2023-09-18T11:35:38;232.93;;;213.82;;
51838;SDS011;37886;53.174;6.368;2023-09-18T11:38:17;342.40;;;314.35;;
51838;SDS011;37886;53.174;6.368;2023-09-18T11:40:43;314.25;;;285.30;;
51838;SDS011;37886;53.174;6.368;2023-09-18T11:45:51;306.58;;;283.83;;
51838;SDS011;37886;53.174;6.368;2023-09-18T11:48:19;391.63;;;358.75;;
51838;SDS011;37886;53.174;6.368;2023-09-18T11:50:46;420.52;;;388.40;;
51838;SDS011;37886;53.174;6.368;2023-09-18T11:53:16;357.60;;;331.88;;
51838;SDS011;37886;53.174;6.368;2023-09-18T11:55:45;329.55;;;304.38;;
51838;SDS011;37886;53.174;6.368;2023-09-18T11:58:11;299.30;;;279.05;;
51838;SDS011;37886;53.174;6.368;2023-09-18T12:00:38;131.55;;;121.32;;
51838;SDS011;37886;53.174;6.368;2023-09-18T12:03:21;887.15;;;572.53;;
51838;SDS011;37886;53.174;6.368;2023-09-18T12:06:03;317.77;;;294.83;;
51838;SDS011;37886;53.174;6.368;2023-09-18T12:08:31;384.40;;;353.45;;
51838;SDS011;37886;53.174;6.368;2023-09-18T12:10:58;231.15;;;209.85;;
51838;SDS011;37886;53.174;6.368;2023-09-18T12:13:27;342.25;;;315.55;;
51838;SDS011;37886;53.174;6.368;2023-09-18T12:15:59;307.95;;;285.58;;
51838;SDS011;37886;53.174;6.368;2023-09-18T12:18:27;529.30;;;474.98;;
51838;SDS011;37886;53.174;6.368;2023-09-18T12:20:55;288.00;;;265.90;;
51838;SDS011;37886;53.174;6.368;2023-09-18T12:23:23;315.98;;;292.83;;
51838;SDS011;37886;53.174;6.368;2023-09-18T12:25:50;162.90;;;150.23;;
51838;SDS011;37886;53.174;6.368;2023-09-18T12:28:23;393.10;;;364.25;;
51838;SDS011;37886;53.174;6.368;2023-09-18T12:30:53;503.15;;;468.70;;
51838;SDS011;37886;53.174;6.368;2023-09-18T12:33:21;248.35;;;229.50;;
51838;SDS011;37886;53.174;6.368;2023-09-18T12:35:50;396.17;;;368.60;;
51838;SDS011;37886;53.174;6.368;2023-09-18T12:38:17;363.90;;;335.92;;
51838;SDS011;37886;53.174;6.368;2023-09-18T12:40:52;428.95;;;398.80;;
51838;SDS011;37886;53.174;6.368;2023-09-18T12:43:18;293.92;;;274.50;;
51838;SDS011;37886;53.174;6.368;2023-09-18T12:45:47;389.75;;;364.95;;
51838;SDS011;37886;53.174;6.368;2023-09-18T12:48:14;304.42;;;281.67;;
51838;SDS011;37886;53.174;6.368;2023-09-18T12:50:40;420.75;;;393.45;;
51838;SDS011;37886;53.174;6.368;2023-09-18T12:53:13;326.55;;;303.55;;
51838;SDS011;37886;53.174;6.368;2023-09-18T12:55:40;359.08;;;332.40;;
51838;SDS011;37886;53.174;6.368;2023-09-18T12:58:11;192.40;;;177.50;;
51838;SDS011;37886;53.174;6.368;2023-09-18T13:00:36;402.98;;;375.23;;
51838;SDS011;37886;53.174;6.368;2023-09-18T13:03:11;288.02;;;266.67;;
51838;SDS011;37886;53.174;6.368;2023-09-18T13:05:38;240.18;;;219.63;;
51838;SDS011;37886;53.174;6.368;2023-09-18T13:08:04;267.13;;;246.40;;
51838;SDS011;37886;53.174;6.368;2023-09-18T13:10:47;421.58;;;391.88;;
51838;SDS011;37886;53.174;6.368;2023-09-18T13:13:18;288.52;;;268.45;;
51838;SDS011;37886;53.174;6.368;2023-09-18T13:15:45;224.65;;;209.20;;
51838;SDS011;37886;53.174;6.368;2023-09-18T13:18:12;316.80;;;292.27;;
51838;SDS011;37886;53.174;6.368;2023-09-18T13:20:38;300.83;;;280.65;;
51838;SDS011;37886;53.174;6.368;2023-09-18T13:23:08;396.85;;;371.60;;
51838;SDS011;37886;53.174;6.368;2023-09-18T13:25:34;335.40;;;310.95;;
51838;SDS011;37886;53.174;6.368;2023-09-18T13:28:06;272.63;;;253.85;;
51838;SDS011;37886;53.174;6.368;2023-09-18T13:30:35;340.02;;;317.60;;
51838;SDS011;37886;53.174;6.368;2023-09-18T13:33:13;322.42;;;302.08;;
51838;SDS011;37886;53.174;6.368;2023-09-18T13:35:42;370.70;;;347.92;;
51838;SDS011;37886;53.174;6.368;2023-09-18T13:38:09;416.98;;;390.10;;
51838;SDS011;37886;53.174;6.368;2023-09-18T13:40:36;416.05;;;389.27;;
51838;SDS011;37886;53.174;6.368;2023-09-18T13:43:03;372.23;;;348.40;;
51838;SDS011;37886;53.174;6.368;2023-09-18T13:45:32;280.27;;;260.33;;
51838;SDS011;37886;53.174;6.368;2023-09-18T13:48:00;159.50;;;148.63;;
51838;SDS011;37886;53.174;6.368;2023-09-18T13:50:26;267.85;;;250.27;;
51838;SDS011;37886;53.174;6.368;2023-09-18T13:52:52;412.20;;;385.38;;
51838;SDS011;37886;53.174;6.368;2023-09-18T13:55:19;75.72;;;71.13;;
51838;SDS011;37886;53.174;6.368;2023-09-18T13:57:44;76.75;;;70.97;;
51838;SDS011;37886;53.174;6.368;2023-09-18T14:00:10;219.05;;;205.45;;
51838;SDS011;37886;53.174;6.368;2023-09-18T14:02:38;143.85;;;133.90;;
51838;SDS011;37886;53.174;6.368;2023-09-18T14:05:05;186.50;;;174.55;;
51838;SDS011;37886;53.174;6.368;2023-09-18T14:07:31;90.20;;;84.63;;
51838;SDS011;37886;53.174;6.368;2023-09-18T14:09:57;96.93;;;90.78;;
51838;SDS011;37886;53.174;6.368;2023-09-18T14:12:24;144.38;;;134.63;;
51838;SDS011;37886;53.174;6.368;2023-09-18T14:14:49;296.27;;;277.48;;
51838;SDS011;37886;53.174;6.368;2023-09-18T14:17:16;312.48;;;293.27;;
51838;SDS011;37886;53.174;6.368;2023-09-18T14:19:46;168.18;;;157.23;;